A4OAJ FZIC-FZAA
Flight info
| Callsign | A4OAJ |
|---|---|
| Flight time | 1h 37m |
| Altitude | 38000 |
| Route | IBRUX DCT XESIR UB535 GURUT DCT ULVAS ULVAS1B |
| Aircraft | A319/M-SDE3FGHIRWY/LB1 |
Departure
| Time | 2026-04-28 18:30 |
|---|---|
| Airport | Bangoka International Airport (FZIC) |
Arrival
| Time | 2026-04-28 20:07 |
|---|---|
| Airport | Ndjili International Airport (FZAA) |
| Time | Latitude | Longitude | Altitude | Speed | Heading |
|---|---|---|---|---|---|
| 2026-04-28 17:44 | 0.49154 | 25.32964 | 1432 ft | 0 kts | 305° |
| 2026-04-28 18:18 | 0.49152 | 25.32963 | 1432 ft | 1 kts | 37° |
| 2026-04-28 18:18 | 0.49140 | 25.32954 | 1432 ft | 2 kts | 36° |
| 2026-04-28 18:18 | 0.49128 | 25.32945 | 1432 ft | 2 kts | 36° |
| 2026-04-28 18:18 | 0.49124 | 25.32942 | 1432 ft | 0 kts | 36° |
| 2026-04-28 18:19 | 0.49107 | 25.32937 | 1432 ft | 2 kts | 342° |
| 2026-04-28 18:19 | 0.49097 | 25.32942 | 1432 ft | 0 kts | 309° |
| 2026-04-28 18:19 | 0.49093 | 25.32948 | 1432 ft | 1 kts | 304° |
| 2026-04-28 18:19 | 0.49093 | 25.32949 | 1432 ft | 0 kts | 304° |
| 2026-04-28 18:24 | 0.49103 | 25.32935 | 1432 ft | 7 kts | 305° |
| 2026-04-28 18:24 | 0.49156 | 25.32862 | 1430 ft | 15 kts | 306° |
| 2026-04-28 18:25 | 0.49220 | 25.32772 | 1428 ft | 16 kts | 303° |
| 2026-04-28 18:25 | 0.49263 | 25.32669 | 1426 ft | 15 kts | 260° |
| 2026-04-28 18:25 | 0.49212 | 25.32582 | 1426 ft | 13 kts | 225° |
| 2026-04-28 18:26 | 0.49196 | 25.32568 | 1426 ft | 0 kts | 218° |
| 2026-04-28 18:27 | 0.49187 | 25.32561 | 1427 ft | 5 kts | 217° |
| 2026-04-28 18:28 | 0.49124 | 25.32542 | 1428 ft | 12 kts | 176° |
| 2026-04-28 18:28 | 0.49035 | 25.32567 | 1430 ft | 14 kts | 140° |
| 2026-04-28 18:28 | 0.49013 | 25.32592 | 1430 ft | 0 kts | 125° |
| 2026-04-28 18:29 | 0.49012 | 25.32593 | 1430 ft | 0 kts | 125° |
| 2026-04-28 18:29 | 0.48928 | 25.32713 | 1432 ft | 55 kts | 124° |
| 2026-04-28 18:29 | 0.48575 | 25.33217 | 1430 ft | 120 kts | 123° |
| 2026-04-28 18:29 | 0.47987 | 25.34059 | 1524 ft | 164 kts | 122° |
| 2026-04-28 18:30 | 0.47352 | 25.34987 | 2073 ft | 166 kts | 123° |
| 2026-04-28 18:30 | 0.47133 | 25.35301 | 2275 ft | 167 kts | 124° |
| 2026-04-28 18:30 | 0.46054 | 25.36837 | 3267 ft | 171 kts | 127° |
| 2026-04-28 18:30 | 0.45343 | 25.37845 | 3692 ft | 186 kts | 126° |
| 2026-04-28 18:31 | 0.44561 | 25.38951 | 4106 ft | 203 kts | 126° |
| 2026-04-28 18:31 | 0.43531 | 25.40027 | 4445 ft | 226 kts | 143° |
| 2026-04-28 18:31 | 0.42077 | 25.40774 | 4859 ft | 247 kts | 160° |
| 2026-04-28 18:31 | 0.40295 | 25.40949 | 5134 ft | 275 kts | 188° |
| 2026-04-28 18:32 | 0.38397 | 25.40533 | 5896 ft | 282 kts | 192° |
| 2026-04-28 18:32 | 0.36474 | 25.40058 | 6659 ft | 286 kts | 191° |
| 2026-04-28 18:32 | 0.34525 | 25.39593 | 7380 ft | 291 kts | 190° |
| 2026-04-28 18:32 | 0.32539 | 25.39124 | 8088 ft | 297 kts | 195° |
| 2026-04-28 18:33 | 0.30723 | 25.38089 | 8748 ft | 307 kts | 225° |
| 2026-04-28 18:33 | 0.29662 | 25.36256 | 9449 ft | 309 kts | 255° |
| 2026-04-28 18:33 | 0.29264 | 25.34164 | 10108 ft | 312 kts | 264° |
| 2026-04-28 18:33 | 0.28984 | 25.31968 | 10535 ft | 325 kts | 263° |
| 2026-04-28 18:34 | 0.28646 | 25.29680 | 10855 ft | 341 kts | 262° |
| 2026-04-28 18:34 | 0.28231 | 25.27320 | 11407 ft | 348 kts | 260° |
| 2026-04-28 18:34 | 0.27772 | 25.24964 | 12084 ft | 349 kts | 259° |
| 2026-04-28 18:34 | 0.27285 | 25.22602 | 12733 ft | 351 kts | 258° |
| 2026-04-28 18:35 | 0.26776 | 25.20202 | 13384 ft | 353 kts | 258° |
| 2026-04-28 18:35 | 0.26263 | 25.17823 | 13972 ft | 356 kts | 257° |
| 2026-04-28 18:35 | 0.25735 | 25.15400 | 14522 ft | 359 kts | 257° |
| 2026-04-28 18:35 | 0.25198 | 25.12942 | 15069 ft | 362 kts | 257° |
| 2026-04-28 18:36 | 0.24663 | 25.10499 | 15610 ft | 365 kts | 257° |
| 2026-04-28 18:36 | 0.24118 | 25.08012 | 16116 ft | 368 kts | 257° |
| 2026-04-28 18:36 | 0.23573 | 25.05524 | 16619 ft | 371 kts | 257° |
| 2026-04-28 18:36 | 0.23021 | 25.02999 | 17104 ft | 374 kts | 257° |
| 2026-04-28 18:37 | 0.22456 | 25.00423 | 17580 ft | 377 kts | 257° |
| 2026-04-28 18:37 | 0.21898 | 24.97873 | 18060 ft | 380 kts | 257° |
| 2026-04-28 18:37 | 0.21337 | 24.95308 | 18505 ft | 383 kts | 257° |
| 2026-04-28 18:37 | 0.20765 | 24.92697 | 18946 ft | 387 kts | 257° |
| 2026-04-28 18:38 | 0.20189 | 24.90065 | 19384 ft | 390 kts | 257° |
| 2026-04-28 18:38 | 0.19604 | 24.87394 | 19829 ft | 392 kts | 257° |
| 2026-04-28 18:38 | 0.19025 | 24.84753 | 20272 ft | 395 kts | 257° |
| 2026-04-28 18:38 | 0.18438 | 24.82075 | 20710 ft | 397 kts | 257° |
| 2026-04-28 18:39 | 0.17842 | 24.79354 | 21123 ft | 399 kts | 257° |
| 2026-04-28 18:39 | 0.17254 | 24.76673 | 21509 ft | 402 kts | 257° |
| 2026-04-28 18:39 | 0.16655 | 24.73941 | 21894 ft | 405 kts | 257° |
| 2026-04-28 18:39 | 0.16051 | 24.71185 | 22267 ft | 407 kts | 257° |
| 2026-04-28 18:40 | 0.15443 | 24.68414 | 22650 ft | 410 kts | 257° |
| 2026-04-28 18:40 | 0.14832 | 24.65627 | 23045 ft | 412 kts | 257° |
| 2026-04-28 18:40 | 0.14219 | 24.62825 | 23441 ft | 414 kts | 257° |
| 2026-04-28 18:40 | 0.13532 | 24.60039 | 23825 ft | 415 kts | 253° |
| 2026-04-28 18:41 | 0.12611 | 24.57329 | 24221 ft | 417 kts | 248° |
| 2026-04-28 18:41 | 0.11433 | 24.54670 | 24591 ft | 419 kts | 244° |
| 2026-04-28 18:41 | 0.10138 | 24.52052 | 24960 ft | 421 kts | 243° |
| 2026-04-28 18:41 | 0.08834 | 24.49458 | 25328 ft | 422 kts | 243° |
| 2026-04-28 18:42 | 0.07505 | 24.46815 | 25688 ft | 424 kts | 243° |
| 2026-04-28 18:42 | 0.06183 | 24.44177 | 26043 ft | 426 kts | 243° |
| 2026-04-28 18:42 | 0.04863 | 24.41537 | 26399 ft | 428 kts | 243° |
| 2026-04-28 18:42 | 0.03524 | 24.38851 | 26743 ft | 430 kts | 243° |
| 2026-04-28 18:43 | 0.02201 | 24.36195 | 27071 ft | 432 kts | 243° |
| 2026-04-28 18:43 | 0.00861 | 24.33501 | 27416 ft | 434 kts | 243° |
| 2026-04-28 18:43 | -0.00487 | 24.30779 | 27753 ft | 436 kts | 244° |
| 2026-04-28 18:43 | -0.01829 | 24.28067 | 28089 ft | 437 kts | 244° |
| 2026-04-28 18:44 | -0.03193 | 24.25316 | 28441 ft | 438 kts | 244° |
| 2026-04-28 18:44 | -0.05896 | 24.19874 | 29058 ft | 443 kts | 244° |
| 2026-04-28 18:44 | -0.07281 | 24.17087 | 29341 ft | 446 kts | 244° |
| 2026-04-28 18:45 | -0.08654 | 24.14326 | 29621 ft | 449 kts | 243° |
| 2026-04-28 18:45 | -0.10042 | 24.11532 | 29913 ft | 451 kts | 243° |
| 2026-04-28 18:45 | -0.11457 | 24.08704 | 30234 ft | 453 kts | 243° |
| 2026-04-28 18:45 | -0.12876 | 24.05882 | 30550 ft | 454 kts | 243° |
| 2026-04-28 18:46 | -0.14282 | 24.03080 | 30846 ft | 456 kts | 243° |
| 2026-04-28 18:46 | -0.15696 | 24.00252 | 31128 ft | 458 kts | 243° |
| 2026-04-28 18:46 | -0.17129 | 23.97380 | 31426 ft | 460 kts | 243° |
| 2026-04-28 18:46 | -0.18552 | 23.94524 | 31818 ft | 460 kts | 243° |
| 2026-04-28 18:47 | -0.19960 | 23.91694 | 32222 ft | 459 kts | 243° |
| 2026-04-28 18:47 | -0.21378 | 23.88845 | 32622 ft | 458 kts | 243° |
| 2026-04-28 18:47 | -0.22799 | 23.85988 | 33033 ft | 457 kts | 243° |
| 2026-04-28 18:47 | -0.24209 | 23.83153 | 33445 ft | 457 kts | 243° |
| 2026-04-28 18:48 | -0.25620 | 23.80315 | 33854 ft | 456 kts | 243° |
| 2026-04-28 18:48 | -0.27014 | 23.77511 | 34230 ft | 455 kts | 243° |
| 2026-04-28 18:48 | -0.28427 | 23.74670 | 34631 ft | 454 kts | 243° |
| 2026-04-28 18:48 | -0.29834 | 23.71841 | 35014 ft | 453 kts | 243° |
| 2026-04-28 18:49 | -0.31232 | 23.69029 | 35376 ft | 453 kts | 243° |
| 2026-04-28 18:49 | -0.31696 | 23.68096 | 35491 ft | 452 kts | 243° |
| 2026-04-28 18:49 | -0.34013 | 23.63434 | 36003 ft | 452 kts | 243° |
| 2026-04-28 18:49 | -0.35413 | 23.60617 | 36245 ft | 453 kts | 243° |
| 2026-04-28 18:50 | -0.36829 | 23.57772 | 36458 ft | 454 kts | 243° |
| 2026-04-28 18:50 | -0.38218 | 23.54975 | 36649 ft | 456 kts | 243° |
| 2026-04-28 18:50 | -0.39627 | 23.52141 | 36852 ft | 457 kts | 243° |
| 2026-04-28 18:50 | -0.41047 | 23.49283 | 37057 ft | 458 kts | 243° |
| 2026-04-28 18:51 | -0.42472 | 23.46415 | 37250 ft | 459 kts | 243° |
| 2026-04-28 18:51 | -0.43878 | 23.43585 | 37431 ft | 460 kts | 243° |
| 2026-04-28 18:51 | -0.45317 | 23.40692 | 37633 ft | 461 kts | 243° |
| 2026-04-28 18:51 | -0.46743 | 23.37862 | 37835 ft | 461 kts | 242° |
| 2026-04-28 18:52 | -0.49662 | 23.32102 | 37936 ft | 463 kts | 243° |
| 2026-04-28 18:52 | -0.52555 | 23.26364 | 37944 ft | 464 kts | 243° |
| 2026-04-28 18:53 | -0.55454 | 23.20624 | 37944 ft | 463 kts | 243° |
| 2026-04-28 18:53 | -0.58341 | 23.14913 | 37947 ft | 464 kts | 243° |
| 2026-04-28 18:54 | -0.61253 | 23.09149 | 37948 ft | 463 kts | 243° |
| 2026-04-28 18:54 | -0.64158 | 23.03404 | 37952 ft | 462 kts | 243° |
| 2026-04-28 18:55 | -0.66566 | 22.98640 | 37952 ft | 462 kts | 243° |
| 2026-04-28 18:55 | -0.69980 | 22.91887 | 37952 ft | 471 kts | 243° |
| 2026-04-28 18:56 | -0.72938 | 22.86035 | 37951 ft | 478 kts | 243° |
| 2026-04-28 18:56 | -0.75949 | 22.80079 | 37951 ft | 484 kts | 243° |
| 2026-04-28 18:57 | -0.78999 | 22.74044 | 37952 ft | 488 kts | 243° |
| 2026-04-28 18:57 | -0.82059 | 22.67989 | 37954 ft | 488 kts | 243° |
| 2026-04-28 18:58 | -0.85120 | 22.61931 | 37954 ft | 488 kts | 243° |
| 2026-04-28 18:58 | -0.88182 | 22.55873 | 37949 ft | 489 kts | 243° |
| 2026-04-28 18:59 | -0.91251 | 22.49805 | 37948 ft | 489 kts | 243° |
| 2026-04-28 18:59 | -0.94298 | 22.43776 | 37948 ft | 490 kts | 243° |
| 2026-04-28 19:00 | -0.97369 | 22.37697 | 37950 ft | 491 kts | 243° |
| 2026-04-28 19:00 | -1.00428 | 22.31628 | 37951 ft | 490 kts | 243° |
| 2026-04-28 19:01 | -1.03498 | 22.25522 | 37954 ft | 490 kts | 243° |
| 2026-04-28 19:01 | -1.06562 | 22.19447 | 37955 ft | 489 kts | 243° |
| 2026-04-28 19:02 | -1.09604 | 22.13423 | 37955 ft | 489 kts | 243° |
| 2026-04-28 19:02 | -1.12706 | 22.07327 | 37957 ft | 490 kts | 242° |
| 2026-04-28 19:03 | -1.15780 | 22.01287 | 37955 ft | 490 kts | 242° |
| 2026-04-28 19:03 | -1.18861 | 21.95198 | 37957 ft | 491 kts | 243° |
| 2026-04-28 19:04 | -1.21926 | 21.89131 | 37954 ft | 490 kts | 243° |
| 2026-04-28 19:04 | -1.24998 | 21.83045 | 37953 ft | 490 kts | 243° |
| 2026-04-28 19:05 | -1.28060 | 21.76974 | 37954 ft | 490 kts | 243° |
| 2026-04-28 19:05 | -1.31134 | 21.70878 | 37954 ft | 491 kts | 243° |
| 2026-04-28 19:06 | -1.33674 | 21.65798 | 37953 ft | 491 kts | 243° |
| 2026-04-28 19:06 | -1.37159 | 21.58681 | 37948 ft | 492 kts | 244° |
| 2026-04-28 19:07 | -1.40164 | 21.52533 | 37946 ft | 492 kts | 243° |
| 2026-04-28 19:07 | -1.43168 | 21.46391 | 37947 ft | 491 kts | 243° |
| 2026-04-28 19:08 | -1.46150 | 21.40297 | 37948 ft | 491 kts | 243° |
| 2026-04-28 19:08 | -1.49143 | 21.34182 | 37944 ft | 491 kts | 244° |
| 2026-04-28 19:09 | -1.52143 | 21.28025 | 37948 ft | 491 kts | 244° |
| 2026-04-28 19:09 | -1.55114 | 21.21933 | 37949 ft | 491 kts | 244° |
| 2026-04-28 19:10 | -1.58119 | 21.15782 | 37947 ft | 490 kts | 244° |
| 2026-04-28 19:10 | -1.61097 | 21.09697 | 37949 ft | 490 kts | 244° |
| 2026-04-28 19:11 | -1.64099 | 21.03561 | 37951 ft | 491 kts | 244° |
| 2026-04-28 19:11 | -1.67083 | 20.97464 | 37956 ft | 491 kts | 244° |
| 2026-04-28 19:12 | -1.70089 | 20.91319 | 37956 ft | 492 kts | 244° |
| 2026-04-28 19:12 | -1.73098 | 20.85165 | 37956 ft | 491 kts | 244° |
| 2026-04-28 19:13 | -1.76094 | 20.79039 | 37956 ft | 491 kts | 244° |
| 2026-04-28 19:13 | -1.79076 | 20.72943 | 37955 ft | 491 kts | 244° |
| 2026-04-28 19:14 | -1.82079 | 20.66801 | 37955 ft | 491 kts | 244° |
| 2026-04-28 19:14 | -1.85069 | 20.60685 | 37956 ft | 492 kts | 244° |
| 2026-04-28 19:15 | -1.88072 | 20.54544 | 37959 ft | 491 kts | 244° |
| 2026-04-28 19:15 | -1.90557 | 20.49459 | 37958 ft | 492 kts | 244° |
| 2026-04-28 19:16 | -1.94060 | 20.42293 | 37961 ft | 491 kts | 244° |
| 2026-04-28 19:16 | -1.97058 | 20.36159 | 37960 ft | 492 kts | 244° |
| 2026-04-28 19:17 | -2.00067 | 20.29979 | 37955 ft | 492 kts | 244° |
| 2026-04-28 19:17 | -2.03044 | 20.23864 | 37959 ft | 491 kts | 244° |
| 2026-04-28 19:18 | -2.06034 | 20.17734 | 37955 ft | 491 kts | 244° |
| 2026-04-28 19:18 | -2.09025 | 20.11612 | 37956 ft | 492 kts | 244° |
| 2026-04-28 19:19 | -2.12056 | 20.05440 | 37958 ft | 493 kts | 243° |
| 2026-04-28 19:19 | -2.15078 | 19.99302 | 37959 ft | 493 kts | 244° |
| 2026-04-28 19:20 | -2.18094 | 19.93131 | 37961 ft | 493 kts | 244° |
| 2026-04-28 19:20 | -2.21094 | 19.86981 | 37958 ft | 492 kts | 244° |
| 2026-04-28 19:21 | -2.24125 | 19.80858 | 37956 ft | 492 kts | 243° |
| 2026-04-28 19:21 | -2.27160 | 19.74748 | 37957 ft | 492 kts | 243° |
| 2026-04-28 19:22 | -2.29682 | 19.69661 | 37955 ft | 493 kts | 244° |
| 2026-04-28 19:22 | -2.33237 | 19.62477 | 37957 ft | 494 kts | 244° |
| 2026-04-28 19:23 | -2.36273 | 19.56342 | 37951 ft | 493 kts | 244° |
| 2026-04-28 19:23 | -2.39312 | 19.50197 | 37951 ft | 493 kts | 244° |
| 2026-04-28 19:24 | -2.42328 | 19.44098 | 37956 ft | 493 kts | 244° |
| 2026-04-28 19:24 | -2.45368 | 19.37952 | 37959 ft | 493 kts | 244° |
| 2026-04-28 19:25 | -2.48410 | 19.31788 | 37964 ft | 494 kts | 244° |
| 2026-04-28 19:25 | -2.51426 | 19.25657 | 37966 ft | 493 kts | 244° |
| 2026-04-28 19:26 | -2.54470 | 19.19484 | 37970 ft | 493 kts | 244° |
| 2026-04-28 19:26 | -2.57496 | 19.13360 | 37965 ft | 492 kts | 244° |
| 2026-04-28 19:27 | -2.60513 | 19.07254 | 37961 ft | 493 kts | 244° |
| 2026-04-28 19:27 | -2.63565 | 19.01075 | 37960 ft | 494 kts | 244° |
| 2026-04-28 19:28 | -2.66605 | 18.94921 | 37959 ft | 493 kts | 244° |
| 2026-04-28 19:28 | -2.69620 | 18.88816 | 37959 ft | 492 kts | 244° |
| 2026-04-28 19:29 | -2.72142 | 18.83705 | 37959 ft | 492 kts | 244° |
| 2026-04-28 19:29 | -2.75687 | 18.76539 | 37959 ft | 492 kts | 244° |
| 2026-04-28 19:30 | -2.78725 | 18.70404 | 37957 ft | 492 kts | 244° |
| 2026-04-28 19:30 | -2.81745 | 18.64300 | 37958 ft | 492 kts | 244° |
| 2026-04-28 19:31 | -2.84781 | 18.58165 | 37958 ft | 491 kts | 244° |
| 2026-04-28 19:31 | -2.87800 | 18.52059 | 37957 ft | 491 kts | 244° |
| 2026-04-28 19:32 | -2.90829 | 18.45931 | 37957 ft | 490 kts | 244° |
| 2026-04-28 19:32 | -2.93837 | 18.39845 | 37957 ft | 490 kts | 244° |
| 2026-04-28 19:33 | -2.96854 | 18.33742 | 37956 ft | 489 kts | 244° |
| 2026-04-28 19:33 | -2.99854 | 18.27641 | 37957 ft | 489 kts | 244° |
| 2026-04-28 19:34 | -3.02846 | 18.21567 | 37958 ft | 488 kts | 244° |
| 2026-04-28 19:34 | -3.05861 | 18.15458 | 37958 ft | 488 kts | 244° |
| 2026-04-28 19:35 | -3.08862 | 18.09381 | 37958 ft | 488 kts | 244° |
| 2026-04-28 19:35 | -3.11867 | 18.03320 | 37959 ft | 488 kts | 244° |
| 2026-04-28 19:36 | -3.14911 | 17.97213 | 37961 ft | 488 kts | 244° |
| 2026-04-28 19:36 | -3.17914 | 17.91152 | 37960 ft | 487 kts | 244° |
| 2026-04-28 19:37 | -3.20403 | 17.86110 | 37959 ft | 487 kts | 244° |
| 2026-04-28 19:37 | -3.23899 | 17.79022 | 37957 ft | 487 kts | 244° |
| 2026-04-28 19:38 | -3.26895 | 17.72947 | 37955 ft | 487 kts | 244° |
| 2026-04-28 19:38 | -3.29893 | 17.66861 | 37955 ft | 487 kts | 244° |
| 2026-04-28 19:39 | -3.32824 | 17.60910 | 37955 ft | 465 kts | 244° |
| 2026-04-28 19:39 | -3.35667 | 17.55140 | 37954 ft | 461 kts | 244° |
| 2026-04-28 19:40 | -3.38726 | 17.49562 | 37843 ft | 461 kts | 237° |
| 2026-04-28 19:40 | -3.40530 | 17.46906 | 37534 ft | 459 kts | 233° |
| 2026-04-28 19:40 | -3.42489 | 17.44397 | 37236 ft | 456 kts | 229° |
| 2026-04-28 19:41 | -3.44586 | 17.42043 | 36915 ft | 453 kts | 225° |
| 2026-04-28 19:41 | -3.46830 | 17.39829 | 36513 ft | 451 kts | 221° |
| 2026-04-28 19:41 | -3.49171 | 17.37720 | 36008 ft | 451 kts | 221° |
| 2026-04-28 19:41 | -3.51508 | 17.35642 | 35394 ft | 452 kts | 221° |
| 2026-04-28 19:42 | -3.53845 | 17.33560 | 34769 ft | 451 kts | 221° |
| 2026-04-28 19:42 | -3.56201 | 17.31446 | 34110 ft | 451 kts | 221° |
| 2026-04-28 19:42 | -3.58528 | 17.29356 | 33476 ft | 450 kts | 221° |
| 2026-04-28 19:42 | -3.60074 | 17.27967 | 33033 ft | 450 kts | 221° |
| 2026-04-28 19:43 | -3.63182 | 17.25178 | 32191 ft | 450 kts | 221° |
| 2026-04-28 19:43 | -3.65515 | 17.23086 | 31557 ft | 450 kts | 221° |
| 2026-04-28 19:43 | -3.67833 | 17.21010 | 30956 ft | 449 kts | 221° |
| 2026-04-28 19:43 | -3.70168 | 17.18917 | 30485 ft | 445 kts | 221° |
| 2026-04-28 19:44 | -3.72478 | 17.16848 | 30087 ft | 440 kts | 221° |
| 2026-04-28 19:44 | -3.74741 | 17.14820 | 29688 ft | 434 kts | 221° |
| 2026-04-28 19:44 | -3.76975 | 17.12817 | 29277 ft | 430 kts | 221° |
| 2026-04-28 19:44 | -3.79195 | 17.10828 | 28875 ft | 425 kts | 221° |
| 2026-04-28 19:45 | -3.81376 | 17.08874 | 28463 ft | 421 kts | 221° |
| 2026-04-28 19:45 | -3.83532 | 17.06942 | 28060 ft | 417 kts | 221° |
| 2026-04-28 19:45 | -3.85698 | 17.05002 | 27673 ft | 413 kts | 221° |
| 2026-04-28 19:45 | -3.87826 | 17.03097 | 27321 ft | 408 kts | 221° |
| 2026-04-28 19:46 | -3.89945 | 17.01198 | 26958 ft | 404 kts | 221° |
| 2026-04-28 19:46 | -3.92011 | 16.99347 | 26589 ft | 401 kts | 221° |
| 2026-04-28 19:46 | -3.94093 | 16.97481 | 26215 ft | 398 kts | 221° |
| 2026-04-28 19:46 | -3.96141 | 16.95645 | 25834 ft | 395 kts | 221° |
| 2026-04-28 19:47 | -3.98176 | 16.93821 | 25446 ft | 392 kts | 222° |
| 2026-04-28 19:47 | -4.00204 | 16.92001 | 25063 ft | 389 kts | 222° |
| 2026-04-28 19:47 | -4.02210 | 16.90202 | 24681 ft | 387 kts | 222° |
| 2026-04-28 19:47 | -4.04205 | 16.88413 | 24316 ft | 384 kts | 222° |
| 2026-04-28 19:48 | -4.06204 | 16.86620 | 23943 ft | 382 kts | 222° |
| 2026-04-28 19:48 | -4.08174 | 16.84852 | 23573 ft | 379 kts | 223° |
| 2026-04-28 19:48 | -4.10122 | 16.83104 | 23223 ft | 377 kts | 223° |
| 2026-04-28 19:48 | -4.12083 | 16.81353 | 22875 ft | 374 kts | 223° |
| 2026-04-28 19:49 | -4.14018 | 16.79627 | 22527 ft | 372 kts | 223° |
| 2026-04-28 19:49 | -4.15965 | 16.77886 | 22182 ft | 370 kts | 223° |
| 2026-04-28 19:49 | -4.17861 | 16.76185 | 21843 ft | 368 kts | 223° |
| 2026-04-28 19:49 | -4.19766 | 16.74476 | 21522 ft | 365 kts | 223° |
| 2026-04-28 19:50 | -4.22626 | 16.70416 | 20786 ft | 360 kts | 252° |
| 2026-04-28 19:50 | -4.23143 | 16.67981 | 20407 ft | 358 kts | 263° |
| 2026-04-28 19:50 | -4.23438 | 16.65513 | 20016 ft | 358 kts | 264° |
| 2026-04-28 19:51 | -4.23714 | 16.63019 | 19625 ft | 358 kts | 264° |
| 2026-04-28 19:51 | -4.23989 | 16.60562 | 19220 ft | 358 kts | 264° |
| 2026-04-28 19:51 | -4.24274 | 16.58074 | 18820 ft | 358 kts | 263° |
| 2026-04-28 19:51 | -4.24559 | 16.55625 | 18406 ft | 358 kts | 263° |
| 2026-04-28 19:52 | -4.24855 | 16.53130 | 17997 ft | 358 kts | 263° |
| 2026-04-28 19:52 | -4.25146 | 16.50688 | 17589 ft | 358 kts | 262° |
| 2026-04-28 19:52 | -4.25446 | 16.48185 | 17165 ft | 358 kts | 262° |
| 2026-04-28 19:52 | -4.25740 | 16.45741 | 16749 ft | 358 kts | 262° |
| 2026-04-28 19:53 | -4.26039 | 16.43264 | 16312 ft | 359 kts | 262° |
| 2026-04-28 19:53 | -4.26337 | 16.40791 | 15883 ft | 359 kts | 263° |
| 2026-04-28 19:53 | -4.26636 | 16.38308 | 15462 ft | 359 kts | 263° |
| 2026-04-28 19:53 | -4.26934 | 16.35815 | 15033 ft | 359 kts | 263° |
| 2026-04-28 19:54 | -4.27230 | 16.33345 | 14608 ft | 358 kts | 263° |
| 2026-04-28 19:54 | -4.27524 | 16.30884 | 14172 ft | 358 kts | 263° |
| 2026-04-28 19:54 | -4.27818 | 16.28420 | 13731 ft | 358 kts | 263° |
| 2026-04-28 19:54 | -4.28113 | 16.25942 | 13297 ft | 357 kts | 263° |
| 2026-04-28 19:55 | -4.28408 | 16.23478 | 12867 ft | 356 kts | 263° |
| 2026-04-28 19:55 | -4.28702 | 16.21025 | 12451 ft | 354 kts | 263° |
| 2026-04-28 19:55 | -4.28992 | 16.18599 | 12046 ft | 353 kts | 263° |
| 2026-04-28 19:55 | -4.29282 | 16.16178 | 11643 ft | 351 kts | 263° |
| 2026-04-28 19:56 | -4.29570 | 16.13768 | 11243 ft | 349 kts | 264° |
| 2026-04-28 19:56 | -4.29861 | 16.11343 | 10828 ft | 347 kts | 264° |
| 2026-04-28 19:56 | -4.30146 | 16.08960 | 10426 ft | 345 kts | 264° |
| 2026-04-28 19:56 | -4.30431 | 16.06575 | 10117 ft | 340 kts | 264° |
| 2026-04-28 19:57 | -4.30705 | 16.04289 | 10050 ft | 327 kts | 264° |
| 2026-04-28 19:57 | -4.30971 | 16.02066 | 9935 ft | 316 kts | 264° |
| 2026-04-28 19:57 | -4.31230 | 15.99896 | 9653 ft | 312 kts | 264° |
| 2026-04-28 19:57 | -4.31483 | 15.97775 | 9383 ft | 307 kts | 264° |
| 2026-04-28 19:58 | -4.31734 | 15.95666 | 8970 ft | 302 kts | 264° |
| 2026-04-28 19:58 | -4.31981 | 15.93595 | 8571 ft | 297 kts | 264° |
| 2026-04-28 19:58 | -4.32222 | 15.91567 | 8214 ft | 290 kts | 264° |
| 2026-04-28 19:58 | -4.32459 | 15.89577 | 7872 ft | 285 kts | 264° |
| 2026-04-28 19:59 | -4.32693 | 15.87616 | 7545 ft | 284 kts | 264° |
| 2026-04-28 19:59 | -4.32929 | 15.85640 | 7219 ft | 285 kts | 264° |
| 2026-04-28 19:59 | -4.33162 | 15.83687 | 6918 ft | 285 kts | 264° |
| 2026-04-28 19:59 | -4.33397 | 15.81714 | 6605 ft | 286 kts | 264° |
| 2026-04-28 20:00 | -4.33633 | 15.79730 | 6289 ft | 287 kts | 264° |
| 2026-04-28 20:00 | -4.33871 | 15.77728 | 5967 ft | 288 kts | 264° |
| 2026-04-28 20:00 | -4.34106 | 15.75738 | 5652 ft | 289 kts | 264° |
| 2026-04-28 20:00 | -4.34344 | 15.73743 | 5338 ft | 289 kts | 264° |
| 2026-04-28 20:01 | -4.34579 | 15.71774 | 5240 ft | 278 kts | 264° |
| 2026-04-28 20:01 | -4.34802 | 15.69907 | 5194 ft | 267 kts | 264° |
| 2026-04-28 20:01 | -4.35020 | 15.68085 | 5147 ft | 255 kts | 264° |
| 2026-04-28 20:01 | -4.35224 | 15.66370 | 5099 ft | 243 kts | 264° |
| 2026-04-28 20:02 | -4.35336 | 15.64720 | 5058 ft | 235 kts | 280° |
| 2026-04-28 20:02 | -4.34699 | 15.63266 | 4804 ft | 231 kts | 316° |
| 2026-04-28 20:02 | -4.33477 | 15.62213 | 4484 ft | 233 kts | 326° |
| 2026-04-28 20:02 | -4.32158 | 15.61220 | 4139 ft | 235 kts | 325° |
| 2026-04-28 20:03 | -4.30897 | 15.60205 | 3817 ft | 233 kts | 323° |
| 2026-04-28 20:03 | -4.29727 | 15.59084 | 3528 ft | 231 kts | 306° |
| 2026-04-28 20:03 | -4.29226 | 15.57594 | 3324 ft | 228 kts | 270° |
| 2026-04-28 20:03 | -4.29652 | 15.56107 | 3116 ft | 222 kts | 235° |
| 2026-04-28 20:04 | -4.30689 | 15.55053 | 3045 ft | 206 kts | 218° |
| 2026-04-28 20:04 | -4.31746 | 15.54209 | 2934 ft | 186 kts | 218° |
| 2026-04-28 20:04 | -4.32651 | 15.53344 | 2708 ft | 173 kts | 227° |
| 2026-04-28 20:04 | -4.33389 | 15.52435 | 2479 ft | 160 kts | 233° |
| 2026-04-28 20:05 | -4.34005 | 15.51561 | 2270 ft | 148 kts | 236° |
| 2026-04-28 20:05 | -4.34557 | 15.50708 | 2092 ft | 145 kts | 237° |
| 2026-04-28 20:05 | -4.35099 | 15.49855 | 1916 ft | 143 kts | 237° |
| 2026-04-28 20:05 | -4.35629 | 15.49033 | 1738 ft | 140 kts | 236° |
| 2026-04-28 20:06 | -4.36146 | 15.48220 | 1569 ft | 138 kts | 238° |
| 2026-04-28 20:06 | -4.36658 | 15.47407 | 1406 ft | 137 kts | 237° |
| 2026-04-28 20:06 | -4.37180 | 15.46604 | 1234 ft | 136 kts | 236° |
| 2026-04-28 20:06 | -4.37688 | 15.45814 | 1086 ft | 135 kts | 237° |
| 2026-04-28 20:07 | -4.38186 | 15.45043 | 1022 ft | 119 kts | 237° |
| 2026-04-28 20:07 | -4.38442 | 15.44650 | 1025 ft | 67 kts | 237° |
| 2026-04-28 20:07 | -4.38602 | 15.44469 | 1023 ft | 14 kts | 180° |
| 2026-04-28 20:07 | -4.38676 | 15.44516 | 1027 ft | 11 kts | 141° |
| 2026-04-28 20:08 | -4.38735 | 15.44538 | 1028 ft | 8 kts | 208° |
| 2026-04-28 20:08 | -4.38773 | 15.44486 | 1028 ft | 10 kts | 239° |
| 2026-04-28 20:08 | -4.38813 | 15.44425 | 1027 ft | 10 kts | 236° |
| 2026-04-28 20:08 | -4.38854 | 15.44363 | 1028 ft | 10 kts | 238° |
| 2026-04-28 20:09 | -4.38891 | 15.44342 | 1028 ft | 6 kts | 154° |
| 2026-04-28 20:09 | -4.38925 | 15.44367 | 1029 ft | 5 kts | 146° |
| 2026-04-28 20:09 | -4.38942 | 15.44378 | 1030 ft | 0 kts | 148° |